createdAt,value
2019-02-20T00:01:04.023Z,100298.27
2019-02-20T00:04:07.015Z,100295.33
2019-02-20T00:07:09.511Z,100297.59
2019-02-20T00:10:11.611Z,100304.16
2019-02-20T00:13:13.535Z,100307.16
2019-02-20T00:16:15.419Z,100312.36
2019-02-20T00:19:17.458Z,100306.69
2019-02-20T00:22:19.419Z,100312.19
2019-02-20T00:25:21.251Z,100312.70
2019-02-20T00:28:23.196Z,100322.98
2019-02-20T00:31:25.099Z,100319.70
2019-02-20T00:34:27.101Z,100325.21
2019-02-20T00:37:29.053Z,100327.20
2019-02-20T00:40:31.000Z,100326.69
2019-02-20T00:43:32.916Z,100326.14
2019-02-20T00:46:36.638Z,100327.86
2019-02-20T00:49:39.760Z,100330.69
2019-02-20T00:53:00.294Z,100327.96
2019-02-20T00:56:02.222Z,100332.67
2019-02-20T00:59:04.104Z,100330.15
2019-02-20T01:02:05.995Z,100329.39
2019-02-20T01:05:08.067Z,100332.16
2019-02-20T01:08:09.998Z,100327.14
2019-02-20T01:11:12.002Z,100320.20
2019-02-20T01:14:13.903Z,100321.45
2019-02-20T01:17:15.967Z,100322.40
2019-02-20T01:20:17.921Z,100325.09
2019-02-20T01:23:19.862Z,100320.64
2019-02-20T01:26:21.745Z,100315.37
2019-02-20T01:29:23.671Z,100320.48
2019-02-20T01:32:25.597Z,100328.09
2019-02-20T01:35:27.544Z,100335.37
2019-02-20T01:38:29.424Z,100331.34
2019-02-20T01:41:31.330Z,100339.39
2019-02-20T01:44:33.255Z,100340.05
2019-02-20T01:47:35.119Z,100338.24
2019-02-20T01:50:37.796Z,100346.36
2019-02-20T01:53:39.707Z,100337.91
2019-02-20T01:56:41.614Z,100335.31
2019-02-20T01:59:43.557Z,100337.47
2019-02-20T02:02:45.590Z,100343.79
2019-02-20T02:05:47.844Z,100336.95
2019-02-20T02:08:49.837Z,100333.13
2019-02-20T02:11:51.801Z,100338.42
2019-02-20T02:14:53.746Z,100344.20
2019-02-20T02:17:55.655Z,100343.95
2019-02-20T02:20:57.736Z,100340.12
2019-02-20T02:23:59.791Z,100336.91
2019-02-20T02:27:01.726Z,100350.07
2019-02-20T02:30:07.252Z,100343.95
2019-02-20T02:33:09.370Z,100349.73
2019-02-20T02:36:11.304Z,100355.66
2019-02-20T02:39:13.259Z,100358.42
2019-02-20T02:42:15.147Z,100366.05
2019-02-20T02:45:17.153Z,100370.74
2019-02-20T02:48:19.089Z,100365.30
2019-02-20T02:51:21.053Z,100372.08
2019-02-20T02:54:22.954Z,100372.55
2019-02-20T02:57:24.913Z,100370.44
2019-02-20T03:00:26.923Z,100377.28
2019-02-20T03:03:28.820Z,100371.05
2019-02-20T03:06:30.784Z,100367.73
2019-02-20T03:09:32.642Z,100372.42
2019-02-20T03:12:35.186Z,100368.08
2019-02-20T03:15:37.065Z,100357.16
2019-02-20T03:18:39.025Z,100374.12
2019-02-20T03:21:40.972Z,100376.34
2019-02-20T03:24:42.911Z,100379.09
2019-02-20T03:27:44.768Z,100378.88
2019-02-20T03:30:46.750Z,100379.97
2019-02-20T03:33:48.759Z,100382.67
2019-02-20T03:36:50.671Z,100378.84
2019-02-20T03:39:52.592Z,100384.31
2019-02-20T03:42:54.533Z,100380.48
2019-02-20T03:45:56.443Z,100385.86
2019-02-20T03:48:58.413Z,100385.08
2019-02-20T03:52:00.415Z,100396.02
2019-02-20T03:55:03.089Z,100386.23
2019-02-20T03:58:04.967Z,100392.26
2019-02-20T04:01:06.894Z,100396.91
2019-02-20T04:04:08.751Z,100400.91
2019-02-20T04:07:11.759Z,100392.56
2019-02-20T04:10:13.642Z,100392.83
2019-02-20T04:13:15.782Z,100396.60
2019-02-20T04:16:17.670Z,100393.73
2019-02-20T04:19:19.629Z,100400.33
2019-02-20T04:22:21.547Z,100400.61
2019-02-20T04:25:23.398Z,100397.33
2019-02-20T04:28:25.302Z,100397.80
2019-02-20T04:31:27.191Z,100404.06
2019-02-20T04:34:29.155Z,100402.97
2019-02-20T04:37:31.009Z,100405.80
2019-02-20T04:40:32.952Z,100398.90
2019-02-20T04:43:34.871Z,100406.86
2019-02-20T04:46:36.824Z,100398.48
2019-02-20T04:49:38.858Z,100406.39
2019-02-20T04:52:40.775Z,100401.19
2019-02-20T04:55:42.755Z,100410.87
2019-02-20T04:58:46.338Z,100403.55
2019-02-20T05:01:48.361Z,100400.56
2019-02-20T05:04:50.278Z,100406.59
2019-02-20T05:07:52.248Z,100405.42
2019-02-20T05:10:54.182Z,100406.18
2019-02-20T05:13:56.276Z,100411.59
2019-02-20T05:16:58.186Z,100408.85
2019-02-20T05:20:00.309Z,100412.44
2019-02-20T05:23:02.409Z,100411.11
2019-02-20T05:26:04.359Z,100414.67
2019-02-20T05:29:06.303Z,100412.99
2019-02-20T05:32:08.279Z,100409.95
2019-02-20T05:35:10.231Z,100412.68
2019-02-20T05:38:12.140Z,100420.59
2019-02-20T05:41:14.134Z,100422.98
2019-02-20T05:44:17.500Z,100424.38
2019-02-20T05:47:19.411Z,100438.38
2019-02-20T05:50:21.335Z,100437.41
2019-02-20T05:53:23.265Z,100443.47
2019-02-20T05:56:25.167Z,100449.45
2019-02-20T05:59:27.163Z,100452.22
2019-02-20T06:02:29.829Z,100451.98
2019-02-20T06:05:32.373Z,100458.55
2019-02-20T06:08:34.245Z,100462.66
2019-02-20T06:11:36.295Z,100465.23
2019-02-20T06:14:38.377Z,100476.48
2019-02-20T06:17:40.431Z,100472.45
2019-02-20T06:20:43.701Z,100467.80
2019-02-20T06:23:45.721Z,100476.22
2019-02-20T06:26:47.710Z,100484.19
2019-02-20T06:29:50.121Z,100479.92
2019-02-20T06:32:52.035Z,100485.98
2019-02-20T06:35:54.030Z,100487.08
2019-02-20T06:38:55.953Z,100484.92
2019-02-20T06:41:57.896Z,100490.44
2019-02-20T06:44:59.839Z,100493.55
2019-02-20T06:48:01.761Z,100491.39
2019-02-20T06:51:03.683Z,100498.86
2019-02-20T06:54:05.654Z,100495.88
2019-02-20T06:57:07.647Z,100505.42
2019-02-20T07:00:12.229Z,100499.37
2019-02-20T07:03:14.104Z,100506.80
2019-02-20T07:06:34.919Z,100508.75
2019-02-20T07:09:52.697Z,100520.36
2019-02-20T07:12:58.250Z,100519.09
2019-02-20T07:16:33.178Z,100523.20
2019-02-20T07:19:44.439Z,100529.28
2019-02-20T07:23:21.761Z,100531.75
2019-02-20T07:26:36.341Z,100528.50
2019-02-20T07:29:47.763Z,100536.51
2019-02-20T07:32:49.686Z,100540.34
2019-02-20T07:35:51.602Z,100547.77
2019-02-20T07:38:56.695Z,100542.05
2019-02-20T07:41:58.673Z,100545.86
2019-02-20T07:45:00.651Z,100550.89
2019-02-20T07:48:04.659Z,100554.78
2019-02-20T07:51:06.699Z,100562.77
2019-02-20T07:54:09.171Z,100563.65
2019-02-20T07:57:11.150Z,100551.92
2019-02-20T08:00:14.491Z,100564.53
2019-02-20T08:03:16.491Z,100566.51
2019-02-20T08:06:18.470Z,100567.91
2019-02-20T08:09:21.683Z,100568.00
2019-02-20T08:12:23.574Z,100570.80
2019-02-20T08:15:25.525Z,100575.56
2019-02-20T08:18:27.610Z,100575.69
2019-02-20T08:21:29.642Z,100574.62
2019-02-20T08:24:31.621Z,100580.50
2019-02-20T08:27:33.642Z,100586.34
2019-02-20T08:30:35.527Z,100580.97
2019-02-20T08:33:37.424Z,100583.45
2019-02-20T08:36:39.379Z,100581.03
2019-02-20T08:39:41.394Z,100595.91
2019-02-20T08:42:43.359Z,100597.89
2019-02-20T08:45:45.271Z,100592.10
2019-02-20T08:48:47.192Z,100592.10
2019-02-20T08:51:49.150Z,100595.45
2019-02-20T08:54:51.045Z,100603.45
2019-02-20T08:57:53.028Z,100604.61
2019-02-20T09:00:54.976Z,100607.66
2019-02-20T09:03:57.459Z,100609.86
2019-02-20T09:06:59.360Z,100608.27
2019-02-20T09:10:02.000Z,100614.33
2019-02-20T09:13:04.090Z,100625.33
2019-02-20T09:16:06.071Z,100613.80
2019-02-20T09:19:08.091Z,100623.14
2019-02-20T09:22:10.116Z,100628.11
2019-02-20T09:25:19.584Z,100627.27
2019-02-20T09:28:15.973Z,100624.25
2019-02-20T09:31:17.919Z,100626.69
2019-02-20T09:34:19.985Z,100626.43
2019-02-20T09:37:22.024Z,100642.08
2019-02-20T09:40:24.022Z,100651.09
2019-02-20T09:43:25.936Z,100658.50
2019-02-20T09:46:27.861Z,100661.55
2019-02-20T09:49:29.782Z,100662.11
2019-02-20T09:52:31.627Z,100660.18
2019-02-20T09:55:33.609Z,100666.20
2019-02-20T09:58:35.644Z,100658.27
2019-02-20T10:01:37.583Z,100661.55
2019-02-20T10:04:39.481Z,100665.67
2019-02-20T10:07:41.439Z,100672.86
2019-02-20T10:10:43.359Z,100668.41
2019-02-20T10:13:45.358Z,100670.08
2019-02-20T10:16:47.319Z,100670.08
2019-02-20T10:19:49.320Z,100658.30
2019-02-20T10:22:51.227Z,100668.45
2019-02-20T10:26:00.589Z,100666.86
2019-02-20T10:28:57.222Z,100670.17
2019-02-20T10:31:59.211Z,100659.48
2019-02-20T10:35:01.162Z,100661.97
2019-02-20T10:38:03.153Z,100664.19
2019-02-20T10:41:05.106Z,100669.23
2019-02-20T10:44:07.102Z,100665.98
2019-02-20T10:47:10.286Z,100668.22
2019-02-20T10:50:12.970Z,100656.09
2019-02-20T10:53:14.907Z,100669.24
2019-02-20T10:56:16.879Z,100663.73
2019-02-20T10:59:19.036Z,100669.50
2019-02-20T11:02:20.906Z,100674.72
2019-02-20T11:05:22.837Z,100680.02
2019-02-20T11:08:25.255Z,100672.28
2019-02-20T11:11:28.129Z,100672.86
2019-02-20T11:14:30.079Z,100677.83
2019-02-20T11:17:32.007Z,100680.87
2019-02-20T11:20:34.100Z,100682.55
2019-02-20T11:23:36.054Z,100678.96
2019-02-20T11:26:50.268Z,100689.46
2019-02-20T11:29:41.946Z,100692.47
2019-02-20T11:32:43.881Z,100681.77
2019-02-20T11:35:45.952Z,100677.34
2019-02-20T11:38:47.905Z,100680.08
2019-02-20T11:41:49.836Z,100679.80
2019-02-20T11:44:51.785Z,100679.00
2019-02-20T11:47:53.740Z,100680.12
2019-02-20T11:50:55.823Z,100676.29
2019-02-20T11:53:57.764Z,100675.98
2019-02-20T11:56:59.774Z,100688.13
2019-02-20T12:00:01.907Z,100685.91
2019-02-20T12:03:05.057Z,100686.72
2019-02-20T12:06:07.382Z,100692.48
2019-02-20T12:09:09.681Z,100698.28
2019-02-20T12:12:12.204Z,100696.38
2019-02-20T12:15:14.120Z,100690.03
2019-02-20T12:18:17.544Z,100698.29
2019-02-20T12:21:20.875Z,100685.13
2019-02-20T12:24:22.811Z,100694.45
2019-02-20T12:27:24.837Z,100682.38
2019-02-20T12:30:26.911Z,100684.03
2019-02-20T12:33:29.087Z,100699.44
2019-02-20T12:36:30.991Z,100696.97
2019-02-20T12:39:32.953Z,100702.48
2019-02-20T12:42:34.917Z,100698.95
2019-02-20T12:45:36.898Z,100686.27
2019-02-20T12:48:39.098Z,100683.26
2019-02-20T12:51:41.378Z,100693.45
2019-02-20T12:54:43.290Z,100696.47
2019-02-20T12:57:45.191Z,100702.01
2019-02-20T13:00:47.237Z,100690.98
2019-02-20T13:03:49.122Z,100690.72
2019-02-20T13:06:59.231Z,100685.45
2019-02-20T13:09:55.297Z,100691.81
2019-02-20T13:12:57.226Z,100699.52
2019-02-20T13:15:59.136Z,100697.86
2019-02-20T13:19:01.075Z,100690.14
2019-02-20T13:22:03.087Z,100687.39
2019-02-20T13:25:06.981Z,100688.49
2019-02-20T13:28:08.952Z,100688.78
2019-02-20T13:31:11.078Z,100697.87
2019-02-20T13:34:13.116Z,100698.41
2019-02-20T13:37:15.097Z,100697.31
2019-02-20T13:40:17.220Z,100711.91
2019-02-20T13:43:19.106Z,100693.45
2019-02-20T13:46:21.600Z,100696.48
2019-02-20T13:49:23.619Z,100702.27
2019-02-20T13:52:25.711Z,100697.86
2019-02-20T13:55:34.189Z,100719.08
2019-02-20T13:58:31.736Z,100714.38
2019-02-20T14:01:34.017Z,100719.05
2019-02-20T14:04:35.981Z,100716.58
2019-02-20T14:07:39.508Z,100716.86
2019-02-20T14:10:42.969Z,100713.55
2019-02-20T14:13:44.942Z,100711.62
2019-02-20T14:16:46.918Z,100722.64
2019-02-20T14:19:49.242Z,100730.38
2019-02-20T14:22:51.285Z,100734.20
2019-02-20T14:25:54.470Z,100733.62
2019-02-20T14:28:56.673Z,100738.00
2019-02-20T14:31:58.736Z,100736.36
2019-02-20T14:35:00.790Z,100738.33
2019-02-20T14:38:02.705Z,100735.56
2019-02-20T14:41:04.745Z,100738.27
2019-02-20T14:44:06.975Z,100737.42
2019-02-20T14:47:09.104Z,100733.31
2019-02-20T14:50:13.450Z,100737.44
2019-02-20T14:53:15.413Z,100737.44
2019-02-20T14:56:17.559Z,100742.95
2019-02-20T14:59:19.603Z,100740.74
2019-02-20T15:02:23.000Z,100737.44
2019-02-20T15:05:25.193Z,100739.09
2019-02-20T15:08:27.303Z,100742.39
2019-02-20T15:11:29.369Z,100746.25
2019-02-20T15:14:31.231Z,100739.09
2019-02-20T15:17:33.181Z,100738.50
2019-02-20T15:20:35.669Z,100744.84
2019-02-20T15:23:38.230Z,100742.88
2019-02-20T15:26:40.158Z,100742.31
2019-02-20T15:29:42.098Z,100747.50
2019-02-20T15:32:44.069Z,100746.63
2019-02-20T15:35:47.509Z,100743.34
2019-02-20T15:38:49.379Z,100745.00
2019-02-20T15:41:51.339Z,100751.05
2019-02-20T15:44:53.348Z,100751.08
2019-02-20T15:47:55.509Z,100749.70
2019-02-20T15:50:57.480Z,100749.70
2019-02-20T15:53:59.512Z,100747.51
2019-02-20T15:57:01.443Z,100755.13
2019-02-20T16:00:10.184Z,100755.13
2019-02-20T16:03:12.268Z,100753.74
2019-02-20T16:06:14.183Z,100752.56
2019-02-20T16:09:16.441Z,100747.02
2019-02-20T16:12:18.584Z,100752.22
2019-02-20T16:15:20.785Z,100753.80
2019-02-20T16:18:24.292Z,100757.89
2019-02-20T16:21:26.209Z,100763.85
2019-02-20T16:24:28.306Z,100759.94
2019-02-20T16:27:31.372Z,100762.59
2019-02-20T16:30:33.625Z,100771.78
2019-02-20T16:33:35.654Z,100770.00
2019-02-20T16:36:37.604Z,100780.98
2019-02-20T16:39:40.857Z,100777.45
2019-02-20T16:42:43.143Z,100782.36
2019-02-20T16:45:47.640Z,100785.33
2019-02-20T16:48:49.918Z,100792.00
2019-02-20T16:51:52.544Z,100792.20
2019-02-20T16:54:55.401Z,100799.36
2019-02-20T16:57:57.318Z,100801.34
2019-02-20T17:00:59.334Z,100794.73
2019-02-20T17:09:31.788Z,100805.53
2019-02-20T17:12:35.613Z,100808.70
2019-02-20T17:15:37.597Z,100802.53
2019-02-20T17:18:39.605Z,100806.08
2019-02-20T17:21:41.680Z,100815.73
2019-02-20T17:24:45.640Z,100816.04
2019-02-20T17:27:47.655Z,100819.34
2019-02-20T17:30:49.529Z,100819.19
2019-02-20T17:33:51.423Z,100818.05
2019-02-20T17:36:54.420Z,100824.03
2019-02-20T17:39:56.346Z,100828.85
2019-02-20T17:42:58.296Z,100829.44
2019-02-20T17:46:01.432Z,100830.84
2019-02-20T17:49:05.948Z,100832.20
2019-02-20T17:52:11.069Z,100839.06
2019-02-20T17:55:16.252Z,100840.87
2019-02-20T17:58:19.452Z,100831.69
2019-02-20T18:01:23.505Z,100838.19
2019-02-20T18:04:27.257Z,100836.44
2019-02-20T18:07:32.186Z,100836.33
2019-02-20T18:10:34.095Z,100841.69
2019-02-20T18:13:36.033Z,100835.55
2019-02-20T18:16:39.951Z,100837.03
2019-02-20T18:19:44.434Z,100847.84
2019-02-20T18:22:46.647Z,100840.61
2019-02-20T18:25:49.078Z,100840.49
2019-02-20T18:28:50.959Z,100852.80
2019-02-20T18:31:55.646Z,100856.64
2019-02-20T18:34:57.558Z,100856.10
2019-02-20T18:38:00.292Z,100865.51
2019-02-20T18:41:05.355Z,100862.52
2019-02-20T18:44:09.049Z,100863.94
2019-02-20T18:47:13.119Z,100868.86
2019-02-20T18:50:16.207Z,100869.55
2019-02-20T18:53:20.156Z,100874.20
2019-02-20T18:56:22.061Z,100873.11
2019-02-20T18:59:24.290Z,100878.09
2019-02-20T19:02:26.318Z,100882.52
2019-02-20T19:05:28.215Z,100889.04
2019-02-20T19:08:48.087Z,100885.25
2019-02-20T19:11:56.739Z,100888.27
2019-02-20T19:15:10.270Z,100887.45
2019-02-20T19:18:15.951Z,100887.55
2019-02-20T19:21:21.514Z,100897.13
2019-02-20T19:24:41.399Z,100894.47
2019-02-20T19:27:51.800Z,100899.05
2019-02-20T19:31:09.273Z,100901.50
2019-02-20T19:34:28.747Z,100906.66
2019-02-20T19:37:34.502Z,100907.73
2019-02-20T19:40:40.141Z,100910.19
2019-02-20T19:44:00.775Z,100912.79
2019-02-20T19:47:38.184Z,100914.92
2019-02-20T19:50:56.590Z,100920.70
2019-02-20T19:54:15.017Z,100921.47
2019-02-20T19:57:29.688Z,100921.16
2019-02-20T20:00:38.702Z,100924.48
2019-02-20T20:03:51.891Z,100920.39
2019-02-20T20:07:16.974Z,100928.23
2019-02-20T20:10:29.900Z,100932.82
2019-02-20T20:13:46.220Z,100928.94
2019-02-20T20:17:10.094Z,100923.86
2019-02-20T20:20:30.875Z,100930.84
2019-02-20T20:24:12.004Z,100926.88
2019-02-20T20:27:45.239Z,100933.86
2019-02-20T20:30:51.077Z,100932.97
2019-02-20T20:33:59.305Z,100934.05
2019-02-20T20:37:21.037Z,100935.23
2019-02-20T20:40:53.097Z,100930.30
2019-02-20T20:44:07.430Z,100932.62
2019-02-20T20:47:18.864Z,100927.02
2019-02-20T20:50:50.342Z,100926.19
2019-02-20T20:54:28.427Z,100930.30
2019-02-20T20:57:43.521Z,100931.87
2019-02-20T21:01:09.112Z,100931.87
2019-02-20T21:04:44.986Z,100923.81
2019-02-20T21:07:52.369Z,100927.98
2019-02-20T21:11:17.018Z,100917.80
2019-02-20T21:14:33.579Z,100921.40
2019-02-20T21:17:44.837Z,100927.50
2019-02-20T21:21:13.161Z,100919.69
2019-02-20T21:24:28.510Z,100926.27
2019-02-20T21:27:37.696Z,100920.99
2019-02-20T21:30:45.746Z,100920.39
2019-02-20T21:34:10.462Z,100920.52
2019-02-20T21:37:21.784Z,100933.10
2019-02-20T21:40:45.525Z,100931.73
2019-02-20T21:44:07.599Z,100931.58
2019-02-20T21:47:43.732Z,100938.34
2019-02-20T21:51:04.420Z,100935.36
2019-02-20T21:54:12.819Z,100935.84
2019-02-20T21:57:24.450Z,100932.88
2019-02-20T22:00:33.102Z,100935.67
2019-02-20T22:03:41.635Z,100934.75
2019-02-20T22:06:56.108Z,100932.09
2019-02-20T22:10:34.839Z,100936.44
2019-02-20T22:14:06.488Z,100941.66
2019-02-20T22:17:27.057Z,100942.95
2019-02-20T22:21:04.941Z,100943.27
2019-02-20T22:24:10.500Z,100934.88
2019-02-20T22:27:34.296Z,100943.41
2019-02-20T22:31:08.524Z,100941.84
2019-02-20T22:34:29.214Z,100940.95
2019-02-20T22:37:40.273Z,100940.35
2019-02-20T22:40:49.087Z,100937.05
2019-02-20T22:44:06.789Z,100943.69
2019-02-20T22:47:17.922Z,100939.40
2019-02-20T22:50:32.851Z,100936.92
2019-02-20T22:53:53.523Z,100946.68
2019-02-20T22:57:14.021Z,100942.99
2019-02-20T23:00:48.648Z,100944.39
2019-02-20T23:04:14.351Z,100946.23
2019-02-20T23:07:23.056Z,100937.46
2019-02-20T23:10:37.666Z,100953.26
2019-02-20T23:13:57.794Z,100947.12
2019-02-20T23:16:59.674Z,100948.49
2019-02-20T23:20:01.551Z,100949.64
2019-02-20T23:23:03.827Z,100954.09
2019-02-20T23:26:05.777Z,100960.38
2019-02-20T23:29:07.675Z,100961.53
2019-02-20T23:32:09.558Z,100955.52
2019-02-20T23:35:11.632Z,100955.17
2019-02-20T23:38:13.581Z,100960.57
2019-02-20T23:41:15.588Z,100958.06
2019-02-20T23:44:17.519Z,100959.02
2019-02-20T23:47:19.580Z,100953.55
2019-02-20T23:50:21.510Z,100958.47
2019-02-20T23:53:24.718Z,100962.54
2019-02-20T23:56:26.797Z,100965.30
2019-02-20T23:59:28.739Z,100964.72
